Time;durP1;ratioP1;P1;durP2;ratioP2;P2;SDS_P1;SDS_P2;PMS_P1;PMS_P2;Temp;Humidity;BMP_temperature;BMP_pressure;BME280_temperature;BME280_humidity;BME280_pressure;Samples;Min_cycle;Max_cycle;Signal;HPM_P1;HPM_P2
2024/02/08 00:00:58;;;;;;;13.93;10.77;;;9.20;99.90;;;;;;5103878;28;21251;-24
2024/02/08 00:03:23;;;;;;;12.80;9.83;;;9.20;99.90;;;;;;5101375;28;20448;-26
2024/02/08 00:05:51;;;;;;;16.07;11.40;;;9.20;99.90;;;;;;5094266;28;20441;-25
2024/02/08 00:08:19;;;;;;;14.90;11.50;;;9.20;99.90;;;;;;5071406;28;20512;-26
2024/02/08 00:10:45;;;;;;;14.63;9.83;;;9.20;99.90;;;;;;5068557;28;20431;-24
2024/02/08 00:13:13;;;;;;;14.13;11.80;;;9.20;99.90;;;;;;5055294;28;20979;-26
2024/02/08 00:15:39;;;;;;;14.27;11.40;;;9.20;99.90;;;;;;5094921;28;20468;-27
2024/02/08 00:18:08;;;;;;;14.30;10.80;;;9.20;99.90;;;;;;5071535;28;20548;-24
2024/02/08 00:20:34;;;;;;;13.57;10.87;;;9.20;99.90;;;;;;5074314;28;20501;-26
2024/02/08 00:23:00;;;;;;;12.33;10.53;;;9.10;99.90;;;;;;5089448;28;20463;-26
2024/02/08 00:25:26;;;;;;;13.97;10.67;;;9.10;99.90;;;;;;5097559;28;20792;-24
2024/02/08 00:27:54;;;;;;;13.30;10.53;;;9.10;99.90;;;;;;5091281;28;20965;-27
2024/02/08 00:30:21;;;;;;;14.07;10.37;;;9.10;99.90;;;;;;5180972;22;20761;-32
2024/02/08 00:32:53;;;;;;;11.30;9.30;;;9.10;99.90;;;;;;5062100;28;20450;-33
2024/02/08 00:35:22;;;;;;;15.33;9.87;;;9.10;99.90;;;;;;5077041;28;20457;-33
2024/02/08 00:37:49;;;;;;;11.03;8.67;;;9.10;99.90;;;;;;5074466;28;20438;-31
2024/02/08 00:40:18;;;;;;;13.87;9.87;;;9.10;99.90;;;;;;5076843;28;20483;-33
2024/02/08 00:42:46;;;;;;;13.60;9.67;;;9.10;99.90;;;;;;5054325;28;20484;-34
2024/02/08 00:45:18;;;;;;;13.70;10.73;;;9.10;99.90;;;;;;5070477;28;20417;-36
2024/02/08 00:47:50;;;;;;;12.90;9.87;;;9.10;99.90;;;;;;5055315;28;20440;-36
2024/02/08 00:50:16;;;;;;;11.50;9.73;;;9.00;99.90;;;;;;5070211;28;20883;-37
2024/02/08 00:52:43;;;;;;;13.00;9.57;;;9.10;99.90;;;;;;5050165;28;20511;-32
2024/02/08 00:55:09;;;;;;;14.03;9.43;;;9.10;99.90;;;;;;5079393;28;20499;-32
2024/02/08 00:57:35;;;;;;;12.13;8.90;;;9.00;99.90;;;;;;5050478;28;20417;-36
2024/02/08 01:00:02;;;;;;;13.13;9.57;;;9.00;99.90;;;;;;5061752;28;20484;-36
2024/02/08 01:02:28;;;;;;;11.37;9.90;;;9.00;99.90;;;;;;5055543;28;20451;-33
2024/02/08 01:04:55;;;;;;;13.10;10.13;;;9.00;99.90;;;;;;5077438;28;20846;-34
2024/02/08 01:07:21;;;;;;;10.70;8.93;;;9.00;99.90;;;;;;5053907;28;20446;-32
2024/02/08 01:09:47;;;;;;;12.50;8.73;;;9.00;99.90;;;;;;5048067;28;20431;-32
2024/02/08 01:12:13;;;;;;;9.43;8.10;;;9.00;99.90;;;;;;5062892;28;20453;-39
2024/02/08 01:14:39;;;;;;;18.00;8.80;;;9.00;99.90;;;;;;5070975;28;20184;-33
2024/02/08 01:17:08;;;;;;;10.90;8.43;;;9.00;99.90;;;;;;5068320;28;20456;-33
2024/02/08 01:19:36;;;;;;;11.43;8.43;;;9.00;99.90;;;;;;5077204;28;20477;-33
2024/02/08 01:22:03;;;;;;;10.33;8.63;;;9.00;99.90;;;;;;5079135;28;20444;-37
2024/02/08 01:24:29;;;;;;;11.27;8.77;;;9.00;99.90;;;;;;5067237;28;20966;-37
2024/02/08 01:26:56;;;;;;;9.23;8.10;;;9.00;99.90;;;;;;5062519;28;20538;-34
2024/02/08 01:29:24;;;;;;;11.93;8.50;;;9.00;99.90;;;;;;5077662;28;20939;-38
2024/02/08 01:31:52;;;;;;;9.73;7.87;;;9.00;99.90;;;;;;5054197;28;20471;-35
2024/02/08 01:34:19;;;;;;;11.60;7.90;;;9.00;99.90;;;;;;5061056;28;20438;-34
2024/02/08 01:36:49;;;;;;;8.73;7.73;;;9.00;99.90;;;;;;5080408;28;20464;-36
2024/02/08 01:39:22;;;;;;;11.63;8.80;;;8.90;99.90;;;;;;5079227;28;20413;-38
2024/02/08 01:41:52;;;;;;;9.93;7.73;;;9.00;99.90;;;;;;5071748;28;21123;-34
2024/02/08 01:44:21;;;;;;;9.80;8.00;;;9.00;99.90;;;;;;5036514;28;20437;-37
2024/02/08 01:46:48;;;;;;;10.57;8.60;;;9.00;99.90;;;;;;5061029;28;20560;-38
2024/02/08 01:49:16;;;;;;;11.83;8.40;;;8.90;99.90;;;;;;5030798;28;20707;-36
2024/02/08 01:51:43;;;;;;;11.33;9.00;;;8.90;99.90;;;;;;5079471;28;20509;-36
2024/02/08 01:54:12;;;;;;;11.47;8.37;;;8.90;99.90;;;;;;5082077;28;20568;-32
2024/02/08 01:56:42;;;;;;;10.10;8.53;;;8.90;99.90;;;;;;5078385;28;20534;-39
2024/02/08 01:59:19;;;;;;;9.50;7.63;;;8.90;99.90;;;;;;5079566;28;20442;-37
2024/02/08 02:01:56;;;;;;;10.57;8.50;;;8.90;99.90;;;;;;5045904;28;21177;-37
2024/02/08 02:04:24;;;;;;;9.83;8.13;;;8.90;99.90;;;;;;5063638;28;20456;-41
2024/02/08 02:06:50;;;;;;;10.83;8.57;;;8.90;99.90;;;;;;5073978;28;20569;-39
2024/02/08 02:09:24;;;;;;;11.17;7.77;;;8.90;99.90;;;;;;5036065;28;20432;-33
2024/02/08 02:12:12;;;;;;;9.50;7.87;;;8.90;99.90;;;;;;5074258;28;20517;-33
2024/02/08 02:14:38;;;;;;;11.97;7.83;;;8.90;99.90;;;;;;5073819;28;20421;-36
2024/02/08 02:17:16;;;;;;;8.97;7.80;;;8.80;99.90;;;;;;5047232;28;20459;-36
2024/02/08 02:19:43;;;;;;;10.60;8.30;;;8.80;99.90;;;;;;5078432;28;20440;-37
2024/02/08 02:22:12;;;;;;;9.80;7.90;;;8.80;99.90;;;;;;5062586;28;20448;-35
2024/02/08 02:24:41;;;;;;;10.37;7.70;;;8.80;99.90;;;;;;5040542;28;20504;-36
2024/02/08 02:27:10;;;;;;;11.33;8.67;;;8.80;99.90;;;;;;5080871;28;21062;-36
2024/02/08 02:29:38;;;;;;;12.00;8.67;;;8.80;99.90;;;;;;5078972;28;20421;-34
2024/02/08 02:32:21;;;;;;;10.37;8.13;;;8.90;99.90;;;;;;5081382;28;20828;-33
2024/02/08 02:34:51;;;;;;;9.73;7.83;;;8.80;99.90;;;;;;5080800;28;20528;-34
2024/02/08 02:37:18;;;;;;;10.10;8.43;;;8.80;99.90;;;;;;5077301;28;20438;-40
2024/02/08 02:39:45;;;;;;;13.77;8.53;;;8.80;99.90;;;;;;5067990;28;20452;-39
2024/02/08 02:42:11;;;;;;;10.73;8.43;;;8.80;99.90;;;;;;5041439;28;20534;-32
2024/02/08 02:44:37;;;;;;;12.67;8.70;;;8.80;99.90;;;;;;5079542;28;20424;-33
2024/02/08 02:47:03;;;;;;;9.20;8.17;;;8.80;99.90;;;;;;5080084;28;20454;-33
2024/02/08 02:49:30;;;;;;;10.27;7.43;;;8.80;99.90;;;;;;5081163;28;20419;-33
2024/02/08 02:51:59;;;;;;;10.90;8.40;;;8.80;99.90;;;;;;5077191;28;20468;-31
2024/02/08 02:54:30;;;;;;;10.53;7.40;;;8.80;99.90;;;;;;5030181;28;20421;-39
2024/02/08 02:57:00;;;;;;;12.80;9.07;;;8.80;99.90;;;;;;5059885;28;20457;-38
2024/02/08 02:59:26;;;;;;;10.53;7.70;;;8.80;99.90;;;;;;5059415;28;20450;-32
2024/02/08 03:01:55;;;;;;;11.67;8.43;;;8.80;99.90;;;;;;5076228;28;20445;-37
2024/02/08 03:04:23;;;;;;;12.17;8.70;;;8.80;99.90;;;;;;5075251;28;20418;-33
2024/02/08 03:06:55;;;;;;;10.33;8.47;;;8.80;99.90;;;;;;5055079;28;20531;-34
2024/02/08 03:09:27;;;;;;;11.47;8.10;;;8.80;99.90;;;;;;5046796;28;20433;-38
2024/02/08 03:11:54;;;;;;;9.33;7.70;;;8.80;99.90;;;;;;5073729;28;21054;-36
2024/02/08 03:14:22;;;;;;;10.20;8.47;;;8.70;99.90;;;;;;5077283;28;20470;-33
2024/02/08 03:16:48;;;;;;;9.90;7.50;;;8.70;99.90;;;;;;5054597;28;21310;-35
2024/02/08 03:19:15;;;;;;;13.17;8.80;;;8.70;99.90;;;;;;5074523;28;20456;-34
2024/02/08 03:21:41;;;;;;;8.70;7.70;;;8.80;99.90;;;;;;5074595;28;20524;-39
2024/02/08 03:24:09;;;;;;;10.83;8.40;;;8.80;99.90;;;;;;5078301;28;20904;-33
2024/02/08 03:26:46;;;;;;;11.97;7.73;;;8.70;99.90;;;;;;5080680;28;21025;-34
2024/02/08 03:29:15;;;;;;;9.70;8.13;;;8.70;99.90;;;;;;5060247;28;20870;-36
2024/02/08 03:31:46;;;;;;;9.93;8.20;;;8.70;99.90;;;;;;5070677;28;21235;-33
2024/02/08 03:34:19;;;;;;;10.50;8.00;;;8.70;99.90;;;;;;5055250;28;20471;-36
2024/02/08 03:36:46;;;;;;;13.73;8.23;;;8.70;99.90;;;;;;5053979;28;20480;-39
2024/02/08 03:39:24;;;;;;;12.13;8.47;;;8.70;99.90;;;;;;5071490;28;20821;-35
2024/02/08 03:42:04;;;;;;;12.50;8.50;;;8.70;99.90;;;;;;5071629;28;20437;-33
2024/02/08 03:44:30;;;;;;;10.47;7.60;;;8.70;99.90;;;;;;5063998;28;20436;-36
2024/02/08 03:47:12;;;;;;;10.97;8.20;;;8.70;99.90;;;;;;5055734;28;20529;-35
2024/02/08 03:49:38;;;;;;;13.30;8.20;;;8.70;99.90;;;;;;5077843;28;20408;-38
2024/02/08 03:52:11;;;;;;;11.23;8.07;;;8.70;99.90;;;;;;5077988;28;20586;-39
2024/02/08 03:54:41;;;;;;;13.23;8.50;;;8.70;99.90;;;;;;5073033;28;20525;-35
2024/02/08 03:57:07;;;;;;;9.90;7.73;;;8.70;99.90;;;;;;5077837;28;20550;-41
2024/02/08 03:59:34;;;;;;;11.77;8.23;;;8.70;99.90;;;;;;5074791;28;20442;-34
2024/02/08 04:02:03;;;;;;;11.43;7.67;;;8.70;99.90;;;;;;5078118;28;20951;-38
2024/02/08 04:04:49;;;;;;;10.00;8.27;;;8.70;99.90;;;;;;5048723;22;20486;-71
2024/02/08 04:07:21;;;;;;;12.50;9.40;;;8.60;99.90;;;;;;5044013;28;20509;-72
2024/02/08 04:10:11;;;;;;;11.17;8.63;;;8.60;99.90;;;;;;5029480;28;20979;-72
2024/02/08 04:54:11;;;;;;;10.97;8.47;;;8.50;99.90;;;;;;5078156;28;20426;-71
2024/02/08 04:56:37;;;;;;;13.00;8.80;;;8.50;99.90;;;;;;5079611;28;20556;-72
2024/02/08 04:59:06;;;;;;;10.60;8.13;;;8.50;99.90;;;;;;5046033;28;20476;-71
2024/02/08 05:01:37;;;;;;;15.53;9.33;;;8.60;99.90;;;;;;5050696;28;20471;-72
2024/02/08 05:04:06;;;;;;;10.90;8.80;;;8.60;99.90;;;;;;5045387;28;20433;-72
2024/02/08 05:06:35;;;;;;;14.03;8.90;;;8.50;99.90;;;;;;5042515;28;21017;-72
2024/02/08 05:09:01;;;;;;;12.67;9.20;;;8.50;99.90;;;;;;5043267;28;20438;-72
2024/02/08 05:11:36;;;;;;;11.87;8.53;;;8.50;99.90;;;;;;5046055;28;20445;-72
2024/02/08 05:14:02;;;;;;;16.40;9.07;;;8.50;99.90;;;;;;5049573;28;20471;-71
2024/02/08 05:16:36;;;;;;;11.60;8.97;;;8.50;99.90;;;;;;5049638;28;20474;-72
2024/02/08 05:19:03;;;;;;;10.77;7.60;;;8.50;99.90;;;;;;5072877;28;20446;-72
2024/02/08 05:21:32;;;;;;;12.03;8.30;;;8.50;99.90;;;;;;5035390;28;20466;-72
2024/02/08 05:23:58;;;;;;;10.70;7.57;;;8.50;99.90;;;;;;5030749;28;20438;-72
2024/02/08 05:26:25;;;;;;;10.30;9.00;;;8.50;99.90;;;;;;5029305;28;20460;-72
2024/02/08 05:28:52;;;;;;;11.83;8.60;;;8.50;99.90;;;;;;5046146;28;20897;-71
2024/02/08 05:31:21;;;;;;;10.63;8.67;;;8.50;99.90;;;;;;5053807;28;20554;-71
2024/02/08 05:33:52;;;;;;;10.43;8.00;;;8.50;99.90;;;;;;5069456;28;20437;-72
2024/02/08 05:36:20;;;;;;;10.47;8.33;;;8.50;99.90;;;;;;5049186;28;20472;-72
2024/02/08 05:38:52;;;;;;;11.97;9.40;;;8.50;99.90;;;;;;5052934;28;21089;-71
2024/02/08 05:41:23;;;;;;;11.30;8.33;;;8.50;99.90;;;;;;5029282;28;20437;-72
2024/02/08 05:43:51;;;;;;;11.20;8.37;;;8.50;99.90;;;;;;5073172;28;20525;-72
2024/02/08 05:46:28;;;;;;;15.23;9.67;;;8.50;99.90;;;;;;5039434;28;20450;-71
2024/02/08 05:49:11;;;;;;;9.83;8.10;;;8.50;99.90;;;;;;5046258;28;20452;-71
2024/02/08 05:51:46;;;;;;;11.37;9.30;;;8.50;99.90;;;;;;5041914;28;20977;-71
2024/02/08 05:54:36;;;;;;;12.80;8.50;;;8.50;99.90;;;;;;5073234;28;20539;-71
2024/02/08 05:57:05;;;;;;;10.67;8.37;;;8.50;99.90;;;;;;5046330;28;20462;-72
2024/02/08 05:59:31;;;;;;;10.87;7.77;;;8.50;99.90;;;;;;5073680;28;20799;-71
2024/02/08 06:02:02;;;;;;;10.90;8.53;;;8.50;99.90;;;;;;5031118;28;20414;-71
2024/02/08 06:04:37;;;;;;;12.53;8.77;;;8.50;99.90;;;;;;5050381;28;20481;-71
2024/02/08 06:07:07;;;;;;;11.13;8.40;;;8.40;99.90;;;;;;5044831;28;20446;-72
2024/02/08 06:09:47;;;;;;;11.40;8.60;;;8.40;99.90;;;;;;5050183;28;20450;-72
2024/02/08 06:12:23;;;;;;;11.10;8.60;;;8.40;99.90;;;;;;5045055;28;20475;-73
2024/02/08 06:14:58;;;;;;;10.30;7.97;;;8.40;99.90;;;;;;5077606;28;20431;-73
2024/02/08 06:17:31;;;;;;;10.03;8.57;;;8.40;99.90;;;;;;5050768;28;20437;-71
2024/02/08 06:20:00;;;;;;;9.73;8.13;;;8.40;99.90;;;;;;5076021;28;20425;-72
2024/02/08 06:22:29;;;;;;;11.47;8.17;;;8.40;99.90;;;;;;5028314;28;20431;-71
2024/02/08 06:25:08;;;;;;;16.03;7.60;;;8.40;99.90;;;;;;5045202;28;20501;-71
2024/02/08 06:27:41;;;;;;;12.33;8.23;;;8.40;99.90;;;;;;5047072;28;20457;-72
2024/02/08 06:30:18;;;;;;;11.23;7.90;;;8.40;99.90;;;;;;5063575;28;20422;-73
2024/02/08 06:32:49;;;;;;;8.80;7.67;;;8.40;99.90;;;;;;5056394;28;20532;-73
2024/02/08 06:35:25;;;;;;;11.67;8.00;;;8.40;99.90;;;;;;5054902;28;20416;-72
2024/02/08 06:38:08;;;;;;;10.23;7.97;;;8.40;99.90;;;;;;5050938;28;20605;-73
2024/02/08 06:40:37;;;;;;;10.60;8.20;;;8.40;99.90;;;;;;5041063;28;20798;-72
2024/02/08 06:46:09;;;;;;;12.60;8.13;;;8.40;99.90;;;;;;5071258;28;20465;-72
2024/02/08 07:38:14;;;;;;;12.20;8.10;;;8.30;99.90;;;;;;5070907;28;20777;-73
2024/02/08 07:40:43;;;;;;;10.13;7.70;;;8.30;99.90;;;;;;5045563;28;20887;-73
2024/02/08 07:46:03;;;;;;;8.27;6.83;;;8.30;99.90;;;;;;5047769;28;20461;-73
2024/02/08 07:48:43;;;;;;;12.17;7.70;;;8.30;99.90;;;;;;5068278;28;20465;-73
2024/02/08 07:51:15;;;;;;;10.57;8.50;;;8.30;99.90;;;;;;5027757;28;20517;-71
2024/02/08 07:53:45;;;;;;;9.73;7.63;;;8.30;99.90;;;;;;5023607;28;20478;-73
2024/02/08 07:58:56;;;;;;;12.70;8.57;;;8.20;99.90;;;;;;5044346;28;21014;-73
2024/02/08 08:01:30;;;;;;;8.93;7.60;;;8.30;99.90;;;;;;5070484;28;21034;-72
2024/02/08 08:04:00;;;;;;;9.80;7.73;;;8.30;99.90;;;;;;5045246;28;20429;-73
2024/02/08 08:06:46;;;;;;;9.60;7.60;;;8.30;99.90;;;;;;5045224;28;20468;-73
2024/02/08 08:09:22;;;;;;;8.57;7.73;;;8.20;99.90;;;;;;5071224;28;20433;-72
2024/02/08 08:11:49;;;;;;;8.70;7.43;;;8.20;99.90;;;;;;5045901;28;20429;-73
2024/02/08 08:17:10;;;;;;;11.07;8.13;;;8.20;99.90;;;;;;5045414;28;20497;-73
2024/02/08 08:19:41;;;;;;;10.40;8.40;;;8.30;99.90;;;;;;5043465;28;20523;-73
2024/02/08 08:22:19;;;;;;;10.43;7.57;;;8.20;99.90;;;;;;5008323;28;20810;-73
2024/02/08 08:27:34;;;;;;;10.90;8.10;;;8.20;99.90;;;;;;5027179;28;20461;-73
2024/02/08 08:30:03;;;;;;;9.10;7.63;;;8.20;99.90;;;;;;5063602;28;20424;-73
2024/02/08 08:38:13;;;;;;;12.27;8.47;;;8.20;99.90;;;;;;5042180;28;20442;-73
2024/02/08 08:40:41;;;;;;;9.50;7.77;;;8.20;99.90;;;;;;5036920;28;20438;-73
2024/02/08 08:43:19;;;;;;;9.07;7.73;;;8.20;99.90;;;;;;5076073;28;20824;-73
2024/02/08 08:45:50;;;;;;;8.93;7.33;;;8.20;99.90;;;;;;5058512;28;20476;-72
2024/02/08 08:48:21;;;;;;;9.70;7.27;;;8.20;99.90;;;;;;5061232;22;20516;-31
2024/02/08 08:50:55;;;;;;;10.43;8.73;;;8.20;99.90;;;;;;5042684;28;20433;-31
2024/02/08 08:53:27;;;;;;;10.83;8.33;;;8.20;99.90;;;;;;5058193;28;20434;-28
2024/02/08 08:55:57;;;;;;;11.40;8.27;;;8.20;99.90;;;;;;5046679;28;20588;-31
2024/02/08 08:58:38;;;;;;;14.50;8.80;;;8.20;99.90;;;;;;5047415;28;20414;-30
2024/02/08 09:01:22;;;;;;;12.50;8.67;;;8.20;99.90;;;;;;5051114;28;20472;-31
2024/02/08 09:06:34;;;;;;;10.23;7.00;;;8.20;99.90;;;;;;5045603;28;20442;-36
2024/02/08 09:09:27;;;;;;;9.73;8.23;;;8.20;99.90;;;;;;5029991;28;20886;-29
2024/02/08 09:11:57;;;;;;;9.10;8.20;;;8.20;99.90;;;;;;5046527;28;20446;-30
2024/02/08 09:14:30;;;;;;;9.53;7.43;;;8.20;99.90;;;;;;5064414;28;20410;-30
2024/02/08 09:16:57;;;;;;;9.13;7.63;;;8.20;99.90;;;;;;5038066;28;21202;-32
2024/02/08 09:19:27;;;;;;;9.57;8.57;;;8.20;99.90;;;;;;5033358;28;20561;-30
2024/02/08 09:21:59;;;;;;;12.73;8.47;;;8.20;99.90;;;;;;4994394;28;20451;-29
2024/02/08 09:24:26;;;;;;;8.60;7.40;;;8.20;99.90;;;;;;5041177;28;20428;-27
2024/02/08 09:27:34;;;;;;;8.30;7.03;;;8.20;99.90;;;;;;5046076;28;20442;-30
2024/02/08 09:29:56;;;;;;;10.23;7.67;;;8.20;99.90;;;;;;5023689;28;20977;-34
2024/02/08 09:35:12;;;;;;;8.60;7.40;;;8.30;99.90;;;;;;5053268;28;20410;-28
2024/02/08 09:37:45;;;;;;;12.57;8.67;;;8.20;99.90;;;;;;5057611;28;20537;-34
2024/02/08 09:43:11;;;;;;;11.67;8.20;;;8.30;99.90;;;;;;5026671;28;20496;-31
2024/02/08 09:48:10;;;;;;;9.50;7.43;;;8.30;99.90;;;;;;5084331;28;20515;-36
2024/02/08 09:50:47;;;;;;;15.30;8.60;;;8.30;99.90;;;;;;5064374;28;20840;-31
2024/02/08 09:53:30;;;;;;;8.30;7.50;;;8.30;99.90;;;;;;5065831;28;20437;-30
2024/02/08 09:56:15;;;;;;;11.30;7.40;;;8.30;99.90;;;;;;5038607;28;20539;-30
2024/02/08 09:58:55;;;;;;;10.80;7.87;;;8.30;99.90;;;;;;5044139;28;20586;-28
2024/02/08 10:04:04;;;;;;;7.50;6.70;;;8.30;99.90;;;;;;5070298;23;21348;-81
2024/02/08 10:06:58;;;;;;;10.10;7.00;;;8.30;99.90;;;;;;5021349;28;20457;-81
2024/02/08 10:09:53;;;;;;;9.13;7.90;;;8.30;99.90;;;;;;5027307;28;20824;-81
2024/02/08 10:12:20;;;;;;;9.07;7.43;;;8.30;99.90;;;;;;5023449;28;20434;-82
2024/02/08 10:14:54;;;;;;;9.50;7.73;;;8.30;99.90;;;;;;5013238;28;20619;-81
2024/02/08 10:17:41;;;;;;;11.20;7.40;;;8.30;99.90;;;;;;5031293;28;20474;-80
2024/02/08 10:22:58;;;;;;;9.33;7.13;;;8.30;99.90;;;;;;5031583;28;20652;-82
2024/02/08 10:28:10;;;;;;;6.50;5.60;;;8.30;99.90;;;;;;5034734;28;20468;-84
2024/02/08 10:30:44;;;;;;;8.50;6.20;;;8.30;99.90;;;;;;5018692;28;20427;-82
2024/02/08 10:33:14;;;;;;;10.77;6.77;;;8.30;99.90;;;;;;5041923;28;20457;-82
2024/02/08 10:35:41;;;;;;;8.00;6.77;;;8.30;99.90;;;;;;5034942;28;20462;-83
2024/02/08 10:38:53;;;;;;;9.30;6.43;;;8.30;99.90;;;;;;5036976;28;20437;-82
2024/02/08 10:41:19;;;;;;;8.10;6.20;;;8.30;99.90;;;;;;5038281;28;20476;-82
2024/02/08 10:43:57;;;;;;;9.90;6.43;;;8.40;99.90;;;;;;5035776;28;20446;-83
2024/02/08 10:46:31;;;;;;;11.97;6.77;;;8.30;99.90;;;;;;5033520;28;20477;-84
2024/02/08 10:49:02;;;;;;;6.90;5.80;;;8.30;99.90;;;;;;5048542;28;20429;-83
2024/02/08 10:51:28;;;;;;;6.27;5.47;;;8.40;99.90;;;;;;5050297;28;20445;-84
2024/02/08 10:54:05;;;;;;;8.67;5.77;;;8.40;99.90;;;;;;5037477;28;21178;-84
2024/02/08 10:56:45;;;;;;;7.97;5.77;;;8.40;99.90;;;;;;5034097;28;20619;-83
2024/02/08 10:59:14;;;;;;;8.43;6.43;;;8.40;99.90;;;;;;5038559;28;20828;-84
2024/02/08 11:04:30;;;;;;;6.53;5.80;;;8.40;99.90;;;;;;5053051;28;20449;-84
2024/02/08 11:07:06;;;;;;;6.53;5.33;;;8.40;99.90;;;;;;5031528;28;21088;-82
2024/02/08 11:09:34;;;;;;;6.83;5.60;;;8.40;99.90;;;;;;5039697;28;20438;-84
2024/02/08 11:12:30;;;;;;;6.67;5.40;;;8.40;99.90;;;;;;5039276;28;20524;-83
2024/02/08 11:15:13;;;;;;;6.90;5.20;;;8.40;99.90;;;;;;5046910;28;20668;-84
2024/02/08 11:17:49;;;;;;;6.73;5.03;;;8.40;99.90;;;;;;5034012;28;20450;-83
2024/02/08 11:20:43;;;;;;;6.50;5.20;;;8.40;99.90;;;;;;5038372;28;21305;-84
2024/02/08 11:23:23;;;;;;;6.20;4.97;;;8.40;99.90;;;;;;5032873;28;20437;-84
2024/02/08 11:25:52;;;;;;;7.40;4.70;;;8.40;99.90;;;;;;5045272;28;20460;-84
2024/02/08 11:28:27;;;;;;;6.23;5.57;;;8.40;99.90;;;;;;5049751;28;21218;-83
2024/02/08 11:30:54;;;;;;;6.10;5.00;;;8.40;99.90;;;;;;5032430;28;21035;-83
2024/02/08 11:33:42;;;;;;;5.90;5.27;;;8.40;99.90;;;;;;5050529;28;20510;-83
2024/02/08 11:36:21;;;;;;;5.20;4.70;;;8.40;99.90;;;;;;5033629;28;21014;-83
2024/02/08 11:39:04;;;;;;;6.07;5.30;;;8.40;99.90;;;;;;5035964;28;20454;-83
2024/02/08 11:41:31;;;;;;;5.90;4.53;;;8.40;99.90;;;;;;5025670;28;20445;-83
2024/02/08 11:44:07;;;;;;;6.00;5.40;;;8.40;99.90;;;;;;5041581;28;20433;-83
2024/02/08 11:46:45;;;;;;;6.40;5.20;;;8.40;99.90;;;;;;5041795;28;20437;-84
2024/02/08 11:49:14;;;;;;;5.40;4.77;;;8.40;99.90;;;;;;5032505;28;20432;-83
2024/02/08 11:51:48;;;;;;;7.40;4.80;;;8.40;99.90;;;;;;5021475;28;20521;-82
2024/02/08 11:54:28;;;;;;;5.53;4.80;;;8.40;99.90;;;;;;5046814;28;20454;-82
2024/02/08 11:57:03;;;;;;;5.80;4.60;;;8.40;99.90;;;;;;5033078;28;20465;-83
2024/02/08 11:59:32;;;;;;;5.03;4.50;;;8.40;99.90;;;;;;5031150;28;21087;-82
2024/02/08 12:02:07;;;;;;;5.43;4.63;;;8.40;99.90;;;;;;5019049;28;20561;-83
2024/02/08 12:04:37;;;;;;;4.47;3.80;;;8.50;99.90;;;;;;5042655;28;21041;-83
2024/02/08 12:07:14;;;;;;;7.33;5.40;;;8.40;99.90;;;;;;5044302;28;20585;-83
2024/02/08 12:09:40;;;;;;;6.40;4.50;;;8.40;99.90;;;;;;5046663;28;20432;-84
2024/02/08 12:12:09;;;;;;;7.73;5.33;;;8.50;99.90;;;;;;5034398;28;20446;-85
2024/02/08 12:14:39;;;;;;;5.50;4.50;;;8.50;99.90;;;;;;5042430;28;20453;-82
2024/02/08 12:17:07;;;;;;;6.93;4.37;;;8.50;99.90;;;;;;5039761;28;20470;-83
2024/02/08 12:19:34;;;;;;;4.77;4.27;;;8.50;99.90;;;;;;5047932;28;20451;-83
2024/02/08 12:22:14;;;;;;;7.00;3.80;;;8.40;99.90;;;;;;5047456;28;20830;-83
2024/02/08 12:24:45;;;;;;;5.87;4.67;;;8.40;99.90;;;;;;5058459;28;20456;-83
2024/02/08 12:27:25;;;;;;;5.13;3.97;;;8.40;99.90;;;;;;5032877;28;20605;-84
2024/02/08 12:29:56;;;;;;;5.00;4.03;;;8.50;99.90;;;;;;5030588;28;20995;-83
2024/02/08 12:32:27;;;;;;;4.80;4.30;;;8.40;99.90;;;;;;5049409;28;20429;-82
2024/02/08 12:34:56;;;;;;;5.30;4.50;;;8.40;99.90;;;;;;5036497;28;20778;-83
2024/02/08 12:37:29;;;;;;;4.53;3.80;;;8.50;99.90;;;;;;5029471;28;20505;-84
2024/02/08 12:39:57;;;;;;;5.20;4.00;;;8.40;99.90;;;;;;5041476;28;20489;-83
2024/02/08 12:42:24;;;;;;;5.60;5.00;;;8.50;99.90;;;;;;5038624;28;20511;-83
2024/02/08 12:44:50;;;;;;;4.97;4.10;;;8.50;99.90;;;;;;5031648;28;20997;-84
2024/02/08 12:47:17;;;;;;;4.32;3.65;;;8.50;99.90;;;;;;5035637;28;20509;-83
2024/02/08 12:49:46;;;;;;;5.03;4.53;;;8.50;99.90;;;;;;5052265;28;20230;-83
2024/02/08 12:52:15;;;;;;;4.57;3.80;;;8.50;99.90;;;;;;5015930;28;20925;-82
2024/02/08 12:54:42;;;;;;;4.63;3.63;;;8.50;99.90;;;;;;5040098;28;20529;-83
2024/02/08 12:57:13;;;;;;;6.47;4.40;;;8.50;99.90;;;;;;5027000;28;20476;-83
2024/02/08 12:59:43;;;;;;;5.90;4.20;;;8.50;99.90;;;;;;5035291;28;20446;-83
2024/02/08 13:02:17;;;;;;;4.53;4.10;;;8.50;99.90;;;;;;5032295;28;20437;-83
2024/02/08 13:04:54;;;;;;;5.80;4.30;;;8.50;99.90;;;;;;5035591;28;20452;-83
2024/02/08 13:07:25;;;;;;;6.20;4.70;;;8.50;99.90;;;;;;5020944;28;20443;-83
2024/02/08 13:10:02;;;;;;;5.17;4.27;;;8.50;99.90;;;;;;5035930;28;20511;-82
2024/02/08 13:12:29;;;;;;;5.20;4.60;;;8.50;99.90;;;;;;5032875;28;20522;-84
2024/02/08 13:15:02;;;;;;;5.83;4.63;;;8.50;99.90;;;;;;5032384;28;20450;-83
2024/02/08 13:17:32;;;;;;;5.33;4.80;;;8.50;99.90;;;;;;5027522;28;20466;-83
2024/02/08 13:20:11;;;;;;;5.20;4.70;;;8.50;99.90;;;;;;5033834;28;20566;-83
2024/02/08 13:22:44;;;;;;;5.23;4.50;;;8.50;99.90;;;;;;5037133;28;20442;-83
2024/02/08 13:25:16;;;;;;;5.07;4.57;;;8.50;99.90;;;;;;5039786;28;21019;-83
2024/02/08 13:27:44;;;;;;;5.83;4.93;;;8.50;99.90;;;;;;5062427;28;20406;-84
2024/02/08 13:30:16;;;;;;;5.47;4.80;;;8.50;99.90;;;;;;5029400;28;20462;-84
2024/02/08 13:32:44;;;;;;;6.63;5.50;;;8.50;99.90;;;;;;5072241;28;20980;-82
2024/02/08 13:35:18;;;;;;;6.33;5.57;;;8.50;99.90;;;;;;5039417;28;20986;-83
2024/02/08 13:37:49;;;;;;;5.17;4.67;;;8.50;99.90;;;;;;5046546;28;20437;-85
2024/02/08 13:40:22;;;;;;;5.47;4.70;;;8.60;99.90;;;;;;5036971;28;20415;-84
2024/02/08 13:42:56;;;;;;;6.13;4.77;;;8.60;99.90;;;;;;5028098;28;20484;-83
2024/02/08 13:45:28;;;;;;;5.43;4.20;;;8.50;99.90;;;;;;5056846;28;20456;-83
2024/02/08 13:48:00;;;;;;;6.07;4.70;;;8.60;99.90;;;;;;5015246;28;20497;-83
2024/02/08 13:50:29;;;;;;;4.97;4.47;;;8.60;99.90;;;;;;5034550;28;20471;-82
2024/02/08 13:52:58;;;;;;;5.30;4.40;;;8.60;99.90;;;;;;5040670;28;20429;-83
2024/02/08 13:55:31;;;;;;;5.53;4.37;;;8.60;99.90;;;;;;5013152;28;20450;-82
2024/02/08 13:58:00;;;;;;;5.80;4.80;;;8.60;99.90;;;;;;5031971;28;20426;-83
2024/02/08 14:00:27;;;;;;;6.00;5.00;;;8.60;99.90;;;;;;5049198;28;20454;-82
2024/02/08 14:02:55;;;;;;;6.20;4.93;;;8.60;99.90;;;;;;5038063;28;20437;-84
2024/02/08 14:05:23;;;;;;;9.50;4.87;;;8.60;99.90;;;;;;5038136;28;20577;-83
2024/02/08 14:07:54;;;;;;;5.70;4.90;;;8.60;99.90;;;;;;5046781;28;20565;-83
2024/02/08 14:10:33;;;;;;;5.90;4.37;;;8.60;99.90;;;;;;5031867;28;21020;-84
2024/02/08 14:13:06;;;;;;;6.30;4.57;;;8.60;99.90;;;;;;5038071;28;20444;-84
2024/02/08 14:15:45;;;;;;;5.70;4.40;;;8.60;99.90;;;;;;5052462;28;20556;-84
2024/02/08 14:21:12;;;;;;;5.83;4.53;;;8.60;99.90;;;;;;5008105;28;20519;-82
2024/02/08 14:23:43;;;;;;;5.53;4.33;;;8.60;99.90;;;;;;5029302;28;20434;-84
2024/02/08 14:26:21;;;;;;;5.13;4.60;;;8.60;99.90;;;;;;5029160;28;20465;-83
2024/02/08 14:28:55;;;;;;;6.20;4.70;;;8.60;99.90;;;;;;5030377;28;20438;-83
2024/02/08 14:31:21;;;;;;;5.00;4.23;;;8.60;99.90;;;;;;5034683;28;20828;-83
2024/02/08 14:33:47;;;;;;;6.80;5.27;;;8.60;99.90;;;;;;5029817;28;20468;-84
2024/02/08 14:36:17;;;;;;;4.60;4.20;;;8.60;99.90;;;;;;5032913;28;20473;-83
2024/02/08 14:38:53;;;;;;;6.30;4.83;;;8.60;99.90;;;;;;5031264;28;20981;-83
2024/02/08 14:41:34;;;;;;;5.23;4.47;;;8.60;99.90;;;;;;5055976;28;20423;-83
2024/02/08 14:44:07;;;;;;;6.20;4.93;;;8.60;99.90;;;;;;5053078;28;20426;-83
2024/02/08 14:46:34;;;;;;;6.30;5.20;;;8.60;99.90;;;;;;5070273;28;20927;-83
2024/02/08 14:49:16;;;;;;;4.60;4.20;;;8.60;99.90;;;;;;5030538;28;20448;-82
2024/02/08 14:51:48;;;;;;;5.67;4.43;;;8.60;99.90;;;;;;5038978;28;21157;-82
2024/02/08 14:54:20;;;;;;;7.17;5.03;;;8.60;99.90;;;;;;5022424;28;20518;-83
2024/02/08 14:57:03;;;;;;;6.63;4.77;;;8.70;99.90;;;;;;5045011;28;20463;-82
2024/02/08 14:59:41;;;;;;;4.97;4.23;;;8.60;99.90;;;;;;5035389;28;20455;-83
2024/02/08 15:02:20;;;;;;;6.33;4.17;;;8.60;99.90;;;;;;5039113;28;20921;-84
2024/02/08 15:04:59;;;;;;;5.43;4.90;;;8.60;99.90;;;;;;5037909;28;20835;-83
2024/02/08 15:07:44;;;;;;;5.07;4.50;;;8.60;99.90;;;;;;5047157;28;20444;-84
2024/02/08 15:10:15;;;;;;;5.60;4.30;;;8.70;99.90;;;;;;5037679;28;20451;-82
2024/02/08 15:12:48;;;;;;;4.70;4.00;;;8.60;99.90;;;;;;5041135;28;20497;-82
2024/02/08 15:15:29;;;;;;;5.90;4.70;;;8.60;99.90;;;;;;5058452;28;20459;-83
2024/02/08 15:18:11;;;;;;;5.90;4.67;;;8.70;99.90;;;;;;5070239;28;20449;-82
2024/02/08 15:20:45;;;;;;;4.50;4.10;;;8.60;99.90;;;;;;5038793;28;21042;-83
2024/02/08 15:23:31;;;;;;;4.60;3.60;;;8.70;99.90;;;;;;5022525;28;20434;-82
2024/02/08 15:26:02;;;;;;;6.13;5.03;;;8.70;99.90;;;;;;5045611;28;20444;-81
2024/02/08 15:28:33;;;;;;;4.37;3.97;;;8.70;99.90;;;;;;5038332;28;20433;-81
2024/02/08 15:36:47;;;;;;;5.07;4.17;;;8.70;99.90;;;;;;5067462;28;20512;-81
2024/02/08 15:42:26;;;;;;;4.33;3.93;;;8.70;99.90;;;;;;4993282;28;20430;-81